createdAt,value
2023-04-03T00:01:19.941Z,1.90
2023-04-03T00:03:46.704Z,1.97
2023-04-03T00:06:13.999Z,2.03
2023-04-03T00:08:41.530Z,1.97
2023-04-03T00:11:13.424Z,2.10
2023-04-03T00:13:41.275Z,1.97
2023-04-03T00:16:16.577Z,1.63
2023-04-03T00:18:43.813Z,2.03
2023-04-03T00:21:13.225Z,1.63
2023-04-03T00:23:39.953Z,1.80
2023-04-03T00:26:09.645Z,1.53
2023-04-03T00:28:36.509Z,2.40
2023-04-03T00:31:06.039Z,1.53
2023-04-03T00:33:35.819Z,2.10
2023-04-03T00:36:08.095Z,1.80
2023-04-03T00:38:34.843Z,1.80
2023-04-03T00:41:01.602Z,1.90
2023-04-03T00:43:28.835Z,1.70
2023-04-03T00:45:57.330Z,1.73
2023-04-03T00:48:32.799Z,1.80
2023-04-03T00:51:00.671Z,1.87
2023-04-03T00:53:33.310Z,1.60
2023-04-03T00:56:01.528Z,1.80
2023-04-03T00:58:38.569Z,1.97
2023-04-03T01:01:13.566Z,1.90
2023-04-03T01:03:40.686Z,2.17
2023-04-03T01:06:07.595Z,1.60
2023-04-03T01:08:34.819Z,1.70
2023-04-03T01:11:01.919Z,2.27
2023-04-03T01:13:31.590Z,1.77
2023-04-03T01:16:01.325Z,1.70
2023-04-03T01:18:28.463Z,1.80
2023-04-03T01:21:24.808Z,1.57
2023-04-03T01:24:00.867Z,2.07
2023-04-03T01:26:29.239Z,1.57
2023-04-03T01:28:56.531Z,1.53
2023-04-03T01:31:34.493Z,1.97
2023-04-03T01:34:01.338Z,1.40
2023-04-03T01:36:30.716Z,1.70
2023-04-03T01:39:00.495Z,1.50
2023-04-03T01:41:27.380Z,1.80
2023-04-03T01:43:54.080Z,1.57
2023-04-03T01:46:21.975Z,1.70
2023-04-03T01:48:49.012Z,1.53
2023-04-03T01:51:17.581Z,1.60
2023-04-03T01:53:44.447Z,1.80
2023-04-03T01:56:11.267Z,1.67
2023-04-03T01:58:38.458Z,1.63
2023-04-03T02:01:05.668Z,1.93
2023-04-03T02:03:32.527Z,1.70
2023-04-03T02:05:59.466Z,1.80
2023-04-03T02:08:26.345Z,1.77
2023-04-03T02:10:53.133Z,1.70
2023-04-03T02:13:20.273Z,1.57
2023-04-03T02:15:48.672Z,1.50
2023-04-03T02:18:16.292Z,1.87
2023-04-03T02:20:43.057Z,2.00
2023-04-03T02:23:10.363Z,1.80
2023-04-03T02:25:38.592Z,2.17
2023-04-03T02:28:06.224Z,1.53
2023-04-03T02:30:33.001Z,1.77
2023-04-03T02:32:59.879Z,1.70
2023-04-03T02:35:26.803Z,1.80
2023-04-03T02:37:53.703Z,1.80
2023-04-03T02:40:20.825Z,1.50
2023-04-03T02:42:47.507Z,1.80
2023-04-03T02:45:14.336Z,1.73
2023-04-03T02:47:41.129Z,1.80
2023-04-03T02:50:08.147Z,1.63
2023-04-03T02:52:34.878Z,1.87
2023-04-03T02:55:01.641Z,1.80
2023-04-03T02:57:28.459Z,1.80
2023-04-03T02:59:55.262Z,2.00
2023-04-03T03:02:22.139Z,1.83
2023-04-03T03:04:52.107Z,1.40
2023-04-03T03:07:18.916Z,1.87
2023-04-03T03:09:48.661Z,1.90
2023-04-03T03:12:15.676Z,1.73
2023-04-03T03:14:43.848Z,1.67
2023-04-03T03:17:10.577Z,1.53
2023-04-03T03:19:37.292Z,1.90
2023-04-03T03:22:07.057Z,1.80
2023-04-03T03:24:33.791Z,1.90
2023-04-03T03:27:00.644Z,1.90
2023-04-03T03:29:27.389Z,2.03
2023-04-03T03:31:54.299Z,2.17
2023-04-03T03:34:21.196Z,1.80
2023-04-03T03:36:47.975Z,1.90
2023-04-03T03:39:14.832Z,1.93
2023-04-03T03:41:41.647Z,1.67
2023-04-03T03:44:08.449Z,1.67
2023-04-03T03:46:35.335Z,1.70
2023-04-03T03:49:02.097Z,1.60
2023-04-03T03:51:28.936Z,1.87
2023-04-03T03:53:58.751Z,1.63
2023-04-03T03:56:26.293Z,2.20
2023-04-03T03:58:53.578Z,2.00
2023-04-03T04:01:20.515Z,1.90
2023-04-03T04:03:47.457Z,1.77
2023-04-03T04:06:17.047Z,1.73
2023-04-03T04:08:46.362Z,1.63
2023-04-03T04:11:13.351Z,1.80
2023-04-03T04:13:40.481Z,2.13
2023-04-03T04:16:08.140Z,1.73
2023-04-03T04:18:35.231Z,1.70
2023-04-03T04:21:05.820Z,1.90
2023-04-03T04:23:32.614Z,2.37
2023-04-03T04:25:59.312Z,2.23
2023-04-03T04:28:26.099Z,1.93
2023-04-03T04:30:52.954Z,1.83
2023-04-03T04:33:19.891Z,1.83
2023-04-03T04:35:49.409Z,2.07
2023-04-03T04:38:16.179Z,1.70
2023-04-03T04:40:42.962Z,2.00
2023-04-03T04:43:12.310Z,1.70
2023-04-03T04:45:39.212Z,2.10
2023-04-03T04:48:06.198Z,2.10
2023-04-03T04:50:32.964Z,2.27
2023-04-03T04:52:59.722Z,2.00
2023-04-03T04:55:26.424Z,2.10
2023-04-03T04:57:53.599Z,2.30
2023-04-03T05:00:20.883Z,2.30
2023-04-03T05:02:47.657Z,1.80
2023-04-03T05:05:14.668Z,2.17
2023-04-03T05:07:44.269Z,1.50
2023-04-03T05:10:13.824Z,2.10
2023-04-03T05:12:43.171Z,1.60
2023-04-03T05:15:10.299Z,1.77
2023-04-03T05:17:37.197Z,1.70
2023-04-03T05:20:05.880Z,2.10
2023-04-03T05:22:32.655Z,1.53
2023-04-03T05:24:59.470Z,1.70
2023-04-03T05:27:29.297Z,1.60
2023-04-03T05:29:56.116Z,2.00
2023-04-03T05:32:23.907Z,1.67
2023-04-03T05:34:50.648Z,1.83
2023-04-03T05:37:17.398Z,1.60
2023-04-03T05:39:44.527Z,2.13
2023-04-03T05:42:12.513Z,1.67
2023-04-03T05:44:39.865Z,1.83
2023-04-03T05:47:06.600Z,1.63
2023-04-03T05:49:33.594Z,1.50
2023-04-03T05:52:00.362Z,1.80
2023-04-03T05:54:29.010Z,1.93
2023-04-03T05:56:56.205Z,1.93
2023-04-03T05:59:23.327Z,2.13
2023-04-03T06:01:50.059Z,1.90
2023-04-03T06:04:17.139Z,1.90
2023-04-03T06:06:52.584Z,2.10
2023-04-03T06:09:27.249Z,1.87
2023-04-03T06:11:54.807Z,2.10
2023-04-03T06:14:21.528Z,2.03
2023-04-03T06:16:48.599Z,2.10
2023-04-03T06:19:15.507Z,2.03
2023-04-03T06:21:42.229Z,2.10
2023-04-03T06:24:13.768Z,2.07
2023-04-03T06:26:40.561Z,2.10
2023-04-03T06:29:07.399Z,1.50
2023-04-03T06:31:34.536Z,1.90
2023-04-03T06:34:04.391Z,1.77
2023-04-03T06:36:31.199Z,1.70
2023-04-03T06:38:57.932Z,1.97
2023-04-03T06:41:24.646Z,1.80
2023-04-03T06:43:51.822Z,1.90
2023-04-03T06:46:20.659Z,1.73
2023-04-03T06:48:47.928Z,2.30
2023-04-03T06:51:26.660Z,2.23
2023-04-03T06:53:55.468Z,1.73
2023-04-03T06:56:23.163Z,2.30
2023-04-03T06:58:55.509Z,2.00
2023-04-03T07:01:31.853Z,2.40
2023-04-03T07:03:59.439Z,1.70
2023-04-03T07:06:29.008Z,2.00
2023-04-03T07:08:56.621Z,2.30
2023-04-03T07:11:24.139Z,2.53
2023-04-03T07:13:51.478Z,1.97
2023-04-03T07:16:18.353Z,2.27
2023-04-03T07:18:47.700Z,1.73
2023-04-03T07:21:14.656Z,2.13
2023-04-03T07:23:41.419Z,1.83
2023-04-03T07:26:09.197Z,1.93
2023-04-03T07:28:38.917Z,1.93
2023-04-03T07:31:09.515Z,2.20
2023-04-03T07:33:36.802Z,2.17
2023-04-03T07:36:05.124Z,1.97
2023-04-03T07:38:31.969Z,2.30
2023-04-03T07:40:59.146Z,2.60
2023-04-03T07:43:26.359Z,2.67
2023-04-03T07:45:53.486Z,1.77
2023-04-03T07:48:22.297Z,1.90
2023-04-03T07:50:49.523Z,1.90
2023-04-03T07:53:16.799Z,1.97
2023-04-03T07:55:46.489Z,1.80
2023-04-03T07:58:16.603Z,1.73
2023-04-03T08:00:43.473Z,1.43
2023-04-03T08:03:13.287Z,2.03
2023-04-03T08:05:42.209Z,1.67
2023-04-03T08:08:14.101Z,1.10
2023-04-03T08:10:41.059Z,1.40
2023-04-03T08:13:09.614Z,1.50
2023-04-03T08:15:37.003Z,1.50
2023-04-03T08:18:04.508Z,1.60
2023-04-03T08:20:31.283Z,1.20
2023-04-03T08:22:58.225Z,1.20
2023-04-03T08:25:25.458Z,1.20
2023-04-03T08:27:54.881Z,1.13
2023-04-03T08:30:21.684Z,1.07
2023-04-03T08:32:48.741Z,1.07
2023-04-03T08:35:15.498Z,1.03
2023-04-03T08:37:42.342Z,1.00
2023-04-03T08:40:15.915Z,1.00
2023-04-03T08:42:51.758Z,1.23
2023-04-03T08:45:32.277Z,1.00
2023-04-03T08:48:22.854Z,1.20
2023-04-03T08:50:54.684Z,0.90
2023-04-03T08:53:29.461Z,1.20
2023-04-03T08:55:56.994Z,1.10
2023-04-03T08:58:27.978Z,1.00
2023-04-03T09:01:05.692Z,0.80
2023-04-03T09:03:35.214Z,0.83
2023-04-03T09:06:16.363Z,0.90
2023-04-03T09:09:04.614Z,0.93
2023-04-03T09:11:43.100Z,0.83
2023-04-03T09:14:46.110Z,0.70
2023-04-03T09:17:34.081Z,0.60
2023-04-03T09:20:18.249Z,0.90
2023-04-03T09:22:52.245Z,0.63
2023-04-03T09:25:34.145Z,0.80
2023-04-03T09:28:05.663Z,0.73
2023-04-03T09:30:32.336Z,0.80
2023-04-03T09:32:59.157Z,0.60
2023-04-03T09:35:47.300Z,0.90
2023-04-03T09:38:15.393Z,0.70
2023-04-03T09:40:44.425Z,1.20
2023-04-03T09:43:30.694Z,0.73
2023-04-03T09:46:19.404Z,0.50
2023-04-03T09:49:09.442Z,0.43
2023-04-03T09:51:37.587Z,0.50
2023-04-03T09:54:31.699Z,0.57
2023-04-03T09:57:07.212Z,0.40
2023-04-03T09:59:41.595Z,0.50
2023-04-03T10:02:17.155Z,0.40
2023-04-03T10:04:43.985Z,0.50
2023-04-03T10:07:36.778Z,0.37
2023-04-03T10:10:15.819Z,0.33
2023-04-03T10:12:42.704Z,0.40
2023-04-03T10:15:18.044Z,0.37
2023-04-03T10:18:04.469Z,0.50
2023-04-03T10:20:41.626Z,0.40
2023-04-03T10:23:21.436Z,0.43
2023-04-03T10:26:13.956Z,0.40
2023-04-03T10:29:00.118Z,1.10
2023-04-03T10:31:36.008Z,0.40
2023-04-03T10:34:13.802Z,0.40
2023-04-03T10:37:10.040Z,0.30
2023-04-03T10:40:25.484Z,0.30
2023-04-03T10:43:12.739Z,0.47
2023-04-03T10:45:52.962Z,0.40
2023-04-03T10:48:57.455Z,0.30
2023-04-03T10:51:28.917Z,0.30
2023-04-03T10:54:08.931Z,0.43
2023-04-03T10:56:57.944Z,0.30
2023-04-03T10:59:40.047Z,0.40
2023-04-03T11:02:31.778Z,0.40
2023-04-03T11:05:40.281Z,0.30
2023-04-03T11:08:52.394Z,0.30
2023-04-03T11:11:26.670Z,0.20
2023-04-03T11:14:18.828Z,0.20
2023-04-03T11:16:54.509Z,0.30
2023-04-03T11:19:29.347Z,0.40
2023-04-03T11:22:05.086Z,0.20
2023-04-03T11:24:34.745Z,0.40
2023-04-03T11:27:04.766Z,0.30
2023-04-03T11:29:37.722Z,0.53
2023-04-03T11:32:56.796Z,0.40
2023-04-03T11:35:26.424Z,0.33
2023-04-03T11:37:56.675Z,0.40
2023-04-03T11:40:33.653Z,0.50
2023-04-03T11:43:00.473Z,0.57
2023-04-03T11:45:54.027Z,0.57
2023-04-03T11:48:30.507Z,0.30
2023-04-03T11:51:01.723Z,0.37
2023-04-03T11:53:31.386Z,0.40
2023-04-03T11:56:01.296Z,0.60
2023-04-03T11:58:31.886Z,0.40
2023-04-03T12:01:10.982Z,0.87
2023-04-03T12:03:40.983Z,0.50
2023-04-03T12:06:20.037Z,0.43
2023-04-03T12:08:55.394Z,0.50
2023-04-03T12:11:33.078Z,0.50
2023-04-03T12:14:00.502Z,0.60
2023-04-03T12:16:39.194Z,0.60
2023-04-03T12:19:42.637Z,0.60
2023-04-03T12:22:21.836Z,0.43
2023-04-03T12:24:57.403Z,0.70
2023-04-03T12:27:30.780Z,0.67
2023-04-03T12:30:04.640Z,0.73
2023-04-03T12:32:40.533Z,0.40
2023-04-03T12:35:21.372Z,0.50
2023-04-03T12:38:26.337Z,0.60
2023-04-03T12:41:19.456Z,0.60
2023-04-03T12:44:23.690Z,0.63
2023-04-03T12:46:53.496Z,0.50
2023-04-03T12:49:42.636Z,0.77
2023-04-03T12:52:21.142Z,0.77
2023-04-03T12:54:49.055Z,0.67
2023-04-03T12:57:21.606Z,0.60
2023-04-03T12:59:49.707Z,0.77
2023-04-03T13:02:27.829Z,0.73
2023-04-03T13:04:58.860Z,0.40
2023-04-03T13:07:31.786Z,1.17
2023-04-03T13:10:08.578Z,0.90
2023-04-03T13:12:54.149Z,0.80
2023-04-03T13:15:28.788Z,0.93
2023-04-03T13:17:56.533Z,0.80
2023-04-03T13:20:27.842Z,0.70
2023-04-03T13:22:59.183Z,0.80
2023-04-03T13:25:28.713Z,0.90
2023-04-03T13:28:06.569Z,0.80
2023-04-03T13:30:56.916Z,0.80
2023-04-03T13:33:27.131Z,0.80
2023-04-03T13:36:33.051Z,0.93
2023-04-03T13:39:05.170Z,0.70
2023-04-03T13:41:43.391Z,1.00
2023-04-03T13:44:39.149Z,1.00
2023-04-03T13:47:12.381Z,1.10
2023-04-03T13:49:42.063Z,1.00
2023-04-03T13:52:36.880Z,0.63
2023-04-03T13:55:24.751Z,0.80
2023-04-03T13:58:02.119Z,1.00
2023-04-03T14:00:48.166Z,0.80
2023-04-03T14:03:38.580Z,0.80
2023-04-03T14:06:12.768Z,0.90
2023-04-03T14:08:43.248Z,0.80
2023-04-03T14:11:40.761Z,0.90
2023-04-03T14:14:17.362Z,0.80
2023-04-03T14:16:58.793Z,0.80
2023-04-03T14:19:43.843Z,0.90
2023-04-03T14:22:26.796Z,0.83
2023-04-03T14:24:53.739Z,1.07
2023-04-03T14:27:23.142Z,0.77
2023-04-03T14:29:51.420Z,0.73
2023-04-03T14:32:19.658Z,0.73
2023-04-03T14:34:47.517Z,0.80
2023-04-03T14:37:16.604Z,0.90
2023-04-03T14:39:44.887Z,1.10
2023-04-03T14:42:15.611Z,1.00
2023-04-03T14:44:42.611Z,0.80
2023-04-03T14:47:27.300Z,1.10
2023-04-03T14:49:58.002Z,0.90
2023-04-03T14:52:35.849Z,1.23
2023-04-03T14:55:06.782Z,0.60
2023-04-03T14:57:34.584Z,1.00
2023-04-03T15:00:07.749Z,1.13
2023-04-03T15:02:40.421Z,0.80
2023-04-03T15:05:10.167Z,1.07
2023-04-03T15:07:40.688Z,1.37
2023-04-03T15:10:29.611Z,1.30
2023-04-03T15:12:56.744Z,1.17
2023-04-03T15:15:24.801Z,1.07
2023-04-03T15:17:58.988Z,0.90
2023-04-03T15:20:28.833Z,0.90
2023-04-03T15:22:57.396Z,0.80
2023-04-03T15:25:26.196Z,0.80
2023-04-03T15:27:55.055Z,1.03
2023-04-03T15:30:22.533Z,0.67
2023-04-03T15:32:50.125Z,0.87
2023-04-03T15:35:17.423Z,1.13
2023-04-03T15:37:44.304Z,1.10
2023-04-03T15:40:13.968Z,0.90
2023-04-03T15:42:41.395Z,0.83
2023-04-03T15:45:09.320Z,0.83
2023-04-03T15:47:36.748Z,1.00
2023-04-03T15:50:07.053Z,1.00
2023-04-03T15:52:33.808Z,1.10
2023-04-03T15:55:03.325Z,1.37
2023-04-03T15:59:57.542Z,1.17
2023-04-03T16:02:28.228Z,1.10
2023-04-03T16:04:56.328Z,1.40
2023-04-03T16:07:23.104Z,1.20
2023-04-03T16:09:49.867Z,1.03
2023-04-03T16:12:16.838Z,0.93
2023-04-03T16:14:43.628Z,1.20
2023-04-03T16:17:12.912Z,0.90
2023-04-03T16:19:39.817Z,1.10
2023-04-03T16:22:06.688Z,1.30
2023-04-03T16:24:33.507Z,1.10
2023-04-03T16:27:00.373Z,1.00
2023-04-03T16:29:27.180Z,1.40
2023-04-03T16:31:56.077Z,1.10
2023-04-03T16:34:23.028Z,1.00
2023-04-03T16:36:50.048Z,1.00
2023-04-03T16:39:17.040Z,1.10
2023-04-03T16:41:43.835Z,1.20
2023-04-03T16:44:10.696Z,1.00
2023-04-03T16:46:37.925Z,1.10
2023-04-03T16:49:05.030Z,1.00
2023-04-03T16:51:32.791Z,0.90
2023-04-03T16:53:59.633Z,0.57
2023-04-03T16:56:32.362Z,0.80
2023-04-03T16:58:59.190Z,0.90
2023-04-03T17:01:26.095Z,0.93
2023-04-03T17:03:52.917Z,1.10
2023-04-03T17:06:22.008Z,0.87
2023-04-03T17:08:50.138Z,1.10
2023-04-03T17:11:17.397Z,1.00
2023-04-03T17:13:44.405Z,1.00
2023-04-03T17:16:15.229Z,1.20
2023-04-03T17:18:42.741Z,1.30
2023-04-03T17:21:09.748Z,0.90
2023-04-03T17:23:39.041Z,1.13
2023-04-03T17:26:06.216Z,1.10
2023-04-03T17:28:33.004Z,1.30
2023-04-03T17:31:01.836Z,1.83
2023-04-03T17:33:31.248Z,1.00
2023-04-03T17:35:59.091Z,0.90
2023-04-03T17:38:26.005Z,1.00
2023-04-03T17:40:56.077Z,1.10
2023-04-03T17:43:22.920Z,0.90
2023-04-03T17:45:49.630Z,1.43
2023-04-03T17:48:16.462Z,1.00
2023-04-03T17:50:46.706Z,1.30
2023-04-03T17:53:15.119Z,1.30
2023-04-03T17:55:41.829Z,1.27
2023-04-03T17:58:08.795Z,1.30
2023-04-03T18:00:37.301Z,1.10
2023-04-03T18:03:04.752Z,1.20
2023-04-03T18:05:35.149Z,1.20
2023-04-03T18:08:02.676Z,1.00
2023-04-03T18:10:30.280Z,1.13
2023-04-03T18:13:01.920Z,1.43
2023-04-03T18:15:28.664Z,1.17
2023-04-03T18:17:57.055Z,1.03
2023-04-03T18:20:26.769Z,1.20
2023-04-03T18:22:53.566Z,0.90
2023-04-03T18:25:21.585Z,1.20
2023-04-03T18:27:48.839Z,1.17
2023-04-03T18:30:17.850Z,1.40
2023-04-03T18:32:47.755Z,1.20
2023-04-03T18:35:14.472Z,1.10
2023-04-03T18:37:41.571Z,1.20
2023-04-03T18:40:08.960Z,1.43
2023-04-03T18:42:35.744Z,1.40
2023-04-03T18:45:05.873Z,1.50
2023-04-03T18:47:33.301Z,1.93
2023-04-03T18:50:00.286Z,1.20
2023-04-03T18:52:29.442Z,1.20
2023-04-03T18:54:59.831Z,1.00
2023-04-03T18:57:26.604Z,1.70
2023-04-03T18:59:53.650Z,1.40
2023-04-03T19:02:26.954Z,1.27
2023-04-03T19:04:53.974Z,1.13
2023-04-03T19:07:21.037Z,1.17
2023-04-03T19:09:47.767Z,1.30
2023-04-03T19:12:14.577Z,1.60
2023-04-03T19:14:41.343Z,1.60
2023-04-03T19:17:09.029Z,1.00
2023-04-03T19:19:35.956Z,1.37
2023-04-03T19:22:02.780Z,1.38
2023-04-03T19:24:32.566Z,1.40
2023-04-03T19:26:59.567Z,1.30
2023-04-03T19:29:26.381Z,1.10
2023-04-03T19:31:53.146Z,1.30
2023-04-03T19:34:26.345Z,1.10
2023-04-03T19:36:53.297Z,1.00
2023-04-03T19:39:20.079Z,1.30
2023-04-03T19:41:50.145Z,1.50
2023-04-03T19:44:16.931Z,1.20
2023-04-03T19:46:50.600Z,1.43
2023-04-03T19:49:19.023Z,1.63
2023-04-03T19:51:46.951Z,1.60
2023-04-03T19:54:17.762Z,1.37
2023-04-03T19:56:45.633Z,1.27
2023-04-03T19:59:14.277Z,1.40
2023-04-03T20:01:46.754Z,1.17
2023-04-03T20:04:17.516Z,1.53
2023-04-03T20:06:44.371Z,0.90
2023-04-03T20:09:18.528Z,1.30
2023-04-03T20:11:47.356Z,1.30
2023-04-03T20:14:15.061Z,1.70
2023-04-03T20:16:42.207Z,1.57
2023-04-03T20:19:09.521Z,1.40
2023-04-03T20:21:36.663Z,1.50
2023-04-03T20:24:06.175Z,1.50
2023-04-03T20:26:33.934Z,1.27
2023-04-03T20:29:02.655Z,1.53
2023-04-03T20:31:31.078Z,1.30
2023-04-03T20:33:58.094Z,1.27
2023-04-03T20:36:26.547Z,1.53
2023-04-03T20:38:53.529Z,1.50
2023-04-03T20:41:20.366Z,1.47
2023-04-03T20:43:47.828Z,1.50
2023-04-03T20:46:19.551Z,1.90
2023-04-03T20:48:50.128Z,1.57
2023-04-03T20:51:20.159Z,1.60
2023-04-03T20:53:47.761Z,1.77
2023-04-03T20:56:15.939Z,2.03
2023-04-03T20:58:46.485Z,1.70
2023-04-03T21:01:24.019Z,2.10
2023-04-03T21:03:55.499Z,2.13
2023-04-03T21:07:00.100Z,1.80
2023-04-03T21:10:04.905Z,2.47
2023-04-03T21:13:09.658Z,1.63
2023-04-03T21:16:06.564Z,1.60
2023-04-03T21:18:36.015Z,1.63
2023-04-03T21:21:03.709Z,1.70
2023-04-03T21:23:31.589Z,1.70
2023-04-03T21:26:02.407Z,1.50
2023-04-03T21:28:29.197Z,2.07
2023-04-03T21:30:56.298Z,1.87
2023-04-03T21:33:25.349Z,2.00
2023-04-03T21:35:57.851Z,2.10
2023-04-03T21:38:26.038Z,2.13
2023-04-03T21:40:56.363Z,2.10
2023-04-03T21:43:23.394Z,1.93
2023-04-03T21:45:59.921Z,1.83
2023-04-03T21:48:30.870Z,1.90
2023-04-03T21:51:04.957Z,1.83
2023-04-03T21:53:33.997Z,1.93
2023-04-03T21:56:02.383Z,1.73
2023-04-03T21:58:31.095Z,1.87
2023-04-03T22:00:58.876Z,2.23
2023-04-03T22:03:25.665Z,1.83
2023-04-03T22:05:53.346Z,1.97
2023-04-03T22:08:20.595Z,1.73
2023-04-03T22:10:47.496Z,2.30
2023-04-03T22:13:15.371Z,1.67
2023-04-03T22:15:49.538Z,1.90
2023-04-03T22:18:16.801Z,2.20
2023-04-03T22:20:44.064Z,2.10
2023-04-03T22:23:11.353Z,1.80
2023-04-03T22:25:38.207Z,1.80
2023-04-03T22:28:04.950Z,1.97
2023-04-03T22:30:34.348Z,1.87
2023-04-03T22:33:01.247Z,2.17
2023-04-03T22:35:28.126Z,1.83
2023-04-03T22:37:55.013Z,2.10
2023-04-03T22:40:24.406Z,2.10
2023-04-03T22:42:51.150Z,1.93
2023-04-03T22:45:18.018Z,2.10
2023-04-03T22:47:44.763Z,1.93
2023-04-03T22:50:11.797Z,1.90
2023-04-03T22:52:38.624Z,2.30
2023-04-03T22:55:16.460Z,2.80
2023-04-03T22:57:49.226Z,2.20
2023-04-03T23:00:16.521Z,1.73
2023-04-03T23:02:43.503Z,1.83
2023-04-03T23:05:10.373Z,2.03
2023-04-03T23:07:37.291Z,2.37
2023-04-03T23:10:05.117Z,1.90
2023-04-03T23:12:41.059Z,2.83
2023-04-03T23:15:08.563Z,2.00
2023-04-03T23:17:41.233Z,1.97
2023-04-03T23:20:08.370Z,2.07
2023-04-03T23:22:35.186Z,2.03
2023-04-03T23:25:01.903Z,2.27
2023-04-03T23:27:28.718Z,2.30
2023-04-03T23:29:55.631Z,2.30
2023-04-03T23:32:22.397Z,2.77
2023-04-03T23:34:52.032Z,1.80
2023-04-03T23:37:18.703Z,2.13
2023-04-03T23:39:45.427Z,1.87
2023-04-03T23:42:12.523Z,2.30
2023-04-03T23:44:39.291Z,2.40
2023-04-03T23:47:06.064Z,2.10
2023-04-03T23:49:33.048Z,2.00
2023-04-03T23:51:59.790Z,2.03
2023-04-03T23:54:26.633Z,2.10
2023-04-03T23:56:55.956Z,2.33
2023-04-03T23:59:22.745Z,2.20
